Time;durP1;ratioP1;P1;durP2;ratioP2;P2;SDS_P1;SDS_P2;PMS_P1;PMS_P2;Temp;Humidity;BMP_temperature;BMP_pressure;BME280_temperature;BME280_humidity;BME280_pressure;Samples;Min_cycle;Max_cycle;Signal;HPM_P1;HPM_P2
2022/10/08 00:03:41;;;;;;;1.70;1.60;;;12.40;50.30;;;11.38;49.55;101271.16;12263109;19;20560;-86
2022/10/08 00:07:44;;;;;;;1.85;1.40;;;12.50;50.50;;;11.31;49.51;101268.00;12262282;19;20480;-86
2022/10/08 00:11:46;;;;;;;1.90;1.70;;;12.30;50.30;;;11.08;49.61;101233.38;12259982;19;20046;-86
2022/10/08 00:15:48;;;;;;;6.57;2.30;;;12.50;50.50;;;11.25;49.90;101258.69;12265383;19;20042;-86
2022/10/08 00:19:49;;;;;;;3.08;1.45;;;12.40;50.50;;;10.96;49.68;101220.06;12262683;19;20019;-86
2022/10/08 00:23:52;;;;;;;1.80;1.67;;;12.10;50.40;;;11.23;49.83;101272.75;12265600;19;20465;-86
2022/10/08 00:27:54;;;;;;;1.80;1.48;;;12.10;50.60;;;11.07;49.86;101250.00;12265398;19;20025;-86
2022/10/08 00:31:55;;;;;;;1.73;1.63;;;12.00;50.60;;;11.01;49.82;101252.03;12264634;19;20006;-86
2022/10/08 00:36:05;;;;;;;2.42;1.85;;;12.10;50.60;;;11.11;49.75;101270.75;12265771;19;20578;-86
2022/10/08 00:40:07;;;;;;;2.05;1.63;;;12.00;50.60;;;11.06;49.95;101269.19;12262612;19;20010;-86
2022/10/08 00:44:46;;;;;;;1.92;1.60;;;12.00;50.60;;;11.03;50.05;101274.56;12263569;19;20101;-86
2022/10/08 00:49:10;;;;;;;1.23;1.13;;;11.90;50.70;;;10.95;49.98;101253.19;12263320;19;20532;-86
2022/10/08 00:53:12;;;;;;;2.03;1.70;;;11.90;50.80;;;10.89;50.07;101250.88;12259887;19;20020;-86
2022/10/08 00:57:15;;;;;;;2.10;1.65;;;11.90;50.80;;;11.00;50.09;101264.28;12260364;19;20019;-86
2022/10/08 01:01:16;;;;;;;3.10;1.77;;;12.10;50.90;;;10.91;50.09;101242.94;12251996;19;20033;-86
2022/10/08 01:05:34;;;;;;;2.83;1.70;;;11.90;50.80;;;11.05;50.28;101262.28;12257300;19;20010;-86
2022/10/08 01:10:02;;;;;;;7.32;1.48;;;12.00;51.00;;;10.67;50.17;101198.81;12254146;19;20018;-86
2022/10/08 01:14:37;;;;;;;1.55;1.35;;;11.90;51.10;;;10.87;50.26;101225.75;12255856;19;20082;-85
2022/10/08 01:19:00;;;;;;;2.00;1.58;;;12.00;51.20;;;10.89;50.40;101235.22;12269949;19;20019;-86
2022/10/08 01:23:12;;;;;;;1.40;1.30;;;11.90;51.20;;;10.82;50.53;101223.34;12257949;19;20007;-86
2022/10/08 01:27:33;;;;;;;1.92;1.50;;;11.90;51.10;;;10.88;50.39;101237.88;12262505;19;20050;-86
2022/10/08 01:31:53;;;;;;;2.58;1.55;;;11.90;51.30;;;10.89;50.53;101237.81;12267408;19;20047;-85
2022/10/08 01:35:58;;;;;;;2.42;1.65;;;12.00;51.30;;;10.90;50.36;101229.03;12271534;19;20003;-86
2022/10/08 01:40:06;;;;;;;2.42;1.90;;;12.20;51.50;;;10.91;50.43;101225.53;12268276;19;20021;-85
2022/10/08 01:44:28;;;;;;;2.13;1.92;;;11.90;51.40;;;10.87;50.64;101218.75;12270505;19;20392;-85
2022/10/08 01:48:35;;;;;;;1.77;1.67;;;11.90;51.60;;;10.61;50.59;101168.63;12270180;19;20018;-85
2022/10/08 01:52:44;;;;;;;1.75;1.38;;;11.90;51.60;;;10.86;50.64;101214.47;12267315;19;20007;-85
2022/10/08 01:56:48;;;;;;;2.15;1.52;;;11.90;52.10;;;10.89;50.85;101209.09;12268893;19;20503;-86
2022/10/08 02:00:52;;;;;;;1.98;1.77;;;11.90;51.70;;;10.88;50.70;101198.69;12266863;19;20036;-85
2022/10/08 02:04:55;;;;;;;2.10;1.63;;;11.90;51.80;;;10.85;50.79;101202.28;12271055;19;20036;-86
2022/10/08 02:08:57;;;;;;;2.17;1.92;;;11.80;51.80;;;10.87;50.79;101210.91;12273253;19;20013;-83
2022/10/08 02:12:59;;;;;;;2.17;1.75;;;11.80;51.70;;;10.74;51.03;101186.31;12269457;19;20027;-85
2022/10/08 02:17:17;;;;;;;2.25;1.38;;;11.80;51.90;;;10.85;50.99;101203.16;12273163;19;20044;-86
2022/10/08 02:21:25;;;;;;;1.75;1.38;;;11.80;52.00;;;10.76;50.87;101182.69;12269382;19;20342;-86
2022/10/08 02:25:39;;;;;;;1.60;1.50;;;11.80;52.00;;;10.65;51.21;101165.88;12271411;19;20002;-86
2022/10/08 02:29:53;;;;;;;2.28;1.65;;;12.00;52.30;;;10.84;51.13;101190.16;12265185;19;20536;-86
2022/10/08 02:34:07;;;;;;;2.85;1.80;;;11.90;52.20;;;10.83;51.06;101168.44;12271070;19;20007;-85
2022/10/08 02:38:50;;;;;;;4.20;2.10;;;11.90;52.40;;;10.91;51.26;101188.97;12268974;19;20094;-86
2022/10/08 02:43:00;;;;;;;2.67;1.52;;;12.20;52.60;;;10.91;51.47;101191.56;12268371;19;20394;-86
2022/10/08 02:47:09;;;;;;;1.50;1.40;;;11.90;52.20;;;10.94;51.30;101194.03;12283267;19;20034;-86
2022/10/08 02:51:14;;;;;;;1.88;1.77;;;12.00;52.30;;;10.81;51.33;101158.97;12265911;19;20034;-86
2022/10/08 02:55:30;;;;;;;1.80;1.42;;;12.00;52.40;;;10.98;51.10;101200.78;12272027;19;20354;-86
2022/10/08 02:59:32;;;;;;;1.63;1.52;;;12.00;52.30;;;10.77;51.39;101162.63;12271868;19;20081;-86
2022/10/08 03:03:46;;;;;;;3.03;2.10;;;12.00;52.20;;;10.93;51.47;101194.94;12274650;19;20010;-86
2022/10/08 03:07:52;;;;;;;1.80;1.70;;;12.20;52.40;;;10.90;51.35;101184.63;12272113;19;20007;-86
2022/10/08 03:11:54;;;;;;;1.92;1.75;;;12.00;52.40;;;10.94;51.44;101201.88;12270303;19;20039;-85
2022/10/08 03:15:57;;;;;;;1.75;1.65;;;12.00;52.40;;;10.90;51.57;101189.00;12271655;19;20083;-87
2022/10/08 03:20:02;;;;;;;1.67;1.42;;;12.00;52.40;;;10.78;51.50;101180.03;12267191;19;20003;-86
2022/10/08 03:24:06;;;;;;;1.67;1.58;;;12.00;52.20;;;10.95;51.44;101214.00;12280151;19;20018;-86
2022/10/08 03:28:08;;;;;;;2.28;1.75;;;12.00;52.30;;;10.78;51.41;101172.19;12270091;19;20025;-86
2022/10/08 03:32:10;;;;;;;2.40;1.70;;;12.00;52.40;;;10.88;51.56;101196.91;12266757;19;20014;-86
2022/10/08 03:36:11;;;;;;;1.63;1.52;;;11.90;52.40;;;10.85;51.60;101191.84;12270654;19;20035;-86
2022/10/08 03:40:13;;;;;;;2.53;1.65;;;12.10;52.60;;;10.88;51.66;101206.53;12264856;19;20469;-86
2022/10/08 03:44:15;;;;;;;1.60;1.50;;;11.90;52.50;;;10.79;51.73;101192.16;12268022;19;20350;-87
2022/10/08 03:48:17;;;;;;;1.55;1.45;;;11.90;52.50;;;10.70;51.78;101172.56;12269962;19;20014;-86
2022/10/08 03:52:19;;;;;;;2.05;1.73;;;11.90;52.50;;;10.70;51.80;101179.56;12266671;19;20034;-86
2022/10/08 03:56:25;;;;;;;1.88;1.77;;;11.90;52.40;;;10.79;51.62;101192.16;12268096;19;20010;-86
2022/10/08 04:00:26;;;;;;;1.65;1.55;;;11.90;52.40;;;10.76;52.00;101189.69;12265750;19;20011;-86
2022/10/08 04:04:28;;;;;;;2.28;1.63;;;11.90;52.50;;;10.45;51.77;101138.09;12266513;19;20006;-84
2022/10/08 04:08:31;;;;;;;1.77;1.63;;;12.10;52.60;;;10.81;51.91;101195.53;12264348;19;20014;-86
2022/10/08 04:12:33;;;;;;;2.30;1.83;;;11.80;52.50;;;10.81;52.07;101190.31;12263875;19;20014;-86
2022/10/08 04:16:35;;;;;;;2.78;1.77;;;12.10;52.80;;;10.80;52.05;101188.59;12265788;19;20007;-86
2022/10/08 04:20:36;;;;;;;3.58;2.15;;;11.80;52.70;;;10.82;51.93;101194.63;12264285;19;20010;-87
2022/10/08 04:24:38;;;;;;;1.80;1.70;;;11.80;52.70;;;10.85;52.09;101205.78;12268400;19;20022;-86
2022/10/08 04:28:43;;;;;;;2.42;2.22;;;11.80;52.70;;;10.54;51.95;101145.50;12267469;19;20021;-86
2022/10/08 04:32:44;;;;;;;3.15;1.60;;;11.90;52.70;;;10.85;51.99;101197.06;12265986;19;20071;-87
2022/10/08 04:36:46;;;;;;;2.90;2.05;;;12.20;52.80;;;10.88;52.15;101196.91;12271372;19;20048;-86
2022/10/08 04:40:47;;;;;;;2.25;1.83;;;11.90;52.80;;;10.77;52.02;101186.16;12267778;19;20023;-86
2022/10/08 04:44:49;;;;;;;1.85;1.75;;;12.10;52.70;;;10.53;52.23;101155.09;12271389;19;20013;-87
2022/10/08 04:48:54;;;;;;;2.10;1.92;;;11.90;52.60;;;10.37;52.25;101134.09;12267244;19;20022;-87
2022/10/08 04:52:56;;;;;;;2.50;1.88;;;12.10;52.70;;;10.75;52.07;101198.47;12267237;19;20007;-86
2022/10/08 04:56:57;;;;;;;2.22;2.03;;;11.80;52.80;;;10.67;52.33;101185.75;12268642;19;20018;-86
2022/10/08 05:01:04;;;;;;;2.38;1.65;;;12.10;53.00;;;10.48;52.18;101157.06;12250108;19;20025;-84
2022/10/08 05:05:06;;;;;;;2.42;1.77;;;11.80;53.00;;;10.76;52.36;101202.75;12255499;19;20020;-85
2022/10/08 05:09:08;;;;;;;2.42;2.22;;;11.90;52.90;;;10.66;52.40;101184.06;12254517;19;20033;-84
2022/10/08 05:13:09;;;;;;;2.67;2.03;;;11.90;53.00;;;10.71;52.31;101183.84;12250193;19;20017;-84
2022/10/08 05:17:11;;;;;;;3.50;2.15;;;11.80;53.00;;;10.71;52.63;101195.13;12254678;19;20098;-84
2022/10/08 05:21:16;;;;;;;2.65;2.45;;;12.10;53.10;;;10.72;52.29;101203.81;12249650;19;20501;-84
2022/10/08 05:25:18;;;;;;;4.25;2.13;;;11.80;53.00;;;10.58;52.38;101188.81;12255097;19;20040;-84
2022/10/08 05:29:20;;;;;;;2.58;1.70;;;11.80;52.80;;;10.69;52.40;101212.63;12254721;19;20023;-84
2022/10/08 05:33:21;;;;;;;2.53;1.63;;;11.80;52.80;;;10.71;52.41;101216.03;12250538;19;20018;-84
2022/10/08 05:37:23;;;;;;;2.22;1.92;;;11.80;52.90;;;10.62;52.46;101212.09;12256415;19;20524;-84
2022/10/08 05:41:29;;;;;;;2.42;1.95;;;11.80;52.90;;;10.61;52.46;101214.75;12251869;19;20027;-84
2022/10/08 05:45:31;;;;;;;2.10;1.90;;;12.00;53.00;;;10.57;52.54;101203.63;12254077;19;20010;-84
2022/10/08 05:49:32;;;;;;;1.73;1.63;;;11.70;53.00;;;10.57;52.51;101203.63;12262697;19;20037;-84
2022/10/08 05:53:36;;;;;;;2.80;2.58;;;11.80;53.00;;;10.58;52.56;101212.31;12267692;19;20034;-84
2022/10/08 05:57:39;;;;;;;1.90;1.80;;;11.70;53.20;;;10.64;52.68;101212.03;12268595;19;20019;-86
2022/10/08 06:01:40;;;;;;;2.88;2.13;;;11.90;53.20;;;10.59;52.65;101211.41;12273537;19;20074;-85
2022/10/08 06:05:42;;;;;;;2.85;2.05;;;11.70;53.20;;;10.51;52.63;101197.88;12269454;19;20015;-85
2022/10/08 06:09:44;;;;;;;2.03;1.92;;;11.70;53.20;;;10.57;52.63;101208.84;12272584;19;20018;-87
2022/10/08 06:13:45;;;;;;;1.77;1.67;;;11.70;53.20;;;10.56;52.65;101207.16;12275984;19;20014;-85
2022/10/08 06:17:49;;;;;;;1.95;1.75;;;11.90;53.40;;;10.37;52.70;101185.47;12268616;19;20021;-86
2022/10/08 06:21:51;;;;;;;1.70;1.60;;;11.70;53.40;;;10.72;52.73;101227.31;12272138;19;20011;-85
2022/10/08 06:25:53;;;;;;;2.85;2.05;;;11.80;53.40;;;10.66;52.78;101209.34;12270730;19;20007;-86
2022/10/08 06:29:55;;;;;;;5.05;2.63;;;11.70;53.30;;;10.71;52.95;101225.63;12263743;19;20017;-84
2022/10/08 06:33:57;;;;;;;2.38;2.15;;;11.80;53.40;;;10.62;52.82;101227.75;12269711;19;20015;-87
2022/10/08 06:37:59;;;;;;;2.88;2.60;;;11.80;53.40;;;10.39;53.11;101179.22;12267747;19;20043;-86
2022/10/08 06:42:01;;;;;;;3.55;2.42;;;11.80;53.50;;;10.70;52.96;101229.19;12265640;19;20006;-84
2022/10/08 06:46:12;;;;;;;2.05;1.95;;;11.80;53.50;;;10.65;52.96;101231.16;12266124;19;20022;-85
2022/10/08 06:50:13;;;;;;;2.35;2.15;;;11.80;53.40;;;10.75;53.05;101248.09;12259697;19;20026;-86
2022/10/08 06:54:15;;;;;;;4.95;3.90;;;11.90;53.50;;;10.80;52.98;101261.75;12260372;19;20102;-85
2022/10/08 06:58:16;;;;;;;7.68;4.50;;;12.00;53.70;;;10.80;53.22;101253.91;12262915;19;20022;-85
2022/10/08 07:02:18;;;;;;;5.65;3.50;;;11.90;53.80;;;10.82;53.13;101265.16;12268289;19;20007;-85
2022/10/08 07:06:20;;;;;;;3.55;3.25;;;11.90;53.90;;;10.83;53.13;101266.88;12264195;19;20010;-85
2022/10/08 07:10:22;;;;;;;3.67;3.35;;;11.90;53.90;;;10.75;53.10;101248.94;12262267;19;20015;-85
2022/10/08 07:14:23;;;;;;;3.40;2.95;;;12.10;54.10;;;10.82;53.37;101260.75;12266080;19;20013;-85
2022/10/08 07:18:25;;;;;;;5.00;2.90;;;11.90;54.00;;;10.93;53.43;101275.09;12264822;19;20018;-85
2022/10/08 07:22:27;;;;;;;3.17;2.88;;;11.90;54.20;;;10.93;53.77;101262.88;12261004;19;20375;-85
2022/10/08 07:26:33;;;;;;;4.90;2.75;;;12.00;54.40;;;10.75;53.48;101228.03;12259988;19;20467;-84
2022/10/08 07:30:35;;;;;;;4.57;3.17;;;12.00;54.70;;;10.79;53.56;101218.28;12251125;19;20070;-85
2022/10/08 07:34:37;;;;;;;3.13;2.72;;;12.30;55.00;;;11.13;53.51;101263.69;12275987;19;20014;-85
2022/10/08 07:38:39;;;;;;;2.95;2.65;;;12.20;55.20;;;10.89;53.66;101227.38;12258659;19;20002;-84
2022/10/08 07:42:41;;;;;;;2.90;2.38;;;12.20;55.30;;;11.12;53.86;101248.91;12258742;19;20019;-85
2022/10/08 07:46:46;;;;;;;2.47;2.28;;;12.30;55.40;;;11.28;53.89;101268.16;12254867;19;20524;-83
2022/10/08 07:50:48;;;;;;;2.40;2.17;;;12.40;55.50;;;11.29;53.88;101254.16;12253872;19;20014;-84
2022/10/08 07:54:49;;;;;;;4.25;2.53;;;12.50;55.60;;;11.42;54.17;101257.00;12257524;19;20006;-83
2022/10/08 07:58:51;;;;;;;3.50;2.80;;;12.70;56.20;;;11.60;54.37;101265.69;12252448;19;20015;-85
2022/10/08 08:02:53;;;;;;;3.00;2.70;;;12.70;56.50;;;11.89;54.39;101287.78;12247598;19;20021;-84
2022/10/08 08:06:55;;;;;;;4.13;3.58;;;12.90;57.00;;;11.99;54.77;101259.34;12253445;19;20488;-84
2022/10/08 08:11:01;;;;;;;4.13;3.40;;;13.10;57.60;;;12.39;54.82;101292.13;12252411;19;20468;-84
2022/10/08 08:15:04;;;;;;;3.00;2.70;;;13.50;58.00;;;12.60;54.83;101283.09;12253447;19;20085;-84
2022/10/08 08:19:06;;;;;;;3.55;2.70;;;13.70;57.90;;;12.90;54.89;101299.84;12253971;19;20476;-84
2022/10/08 08:23:07;;;;;;;2.60;2.40;;;13.90;57.60;;;12.95;54.92;101266.34;12255676;19;20014;-84
2022/10/08 08:27:09;;;;;;;2.30;2.10;;;14.20;57.60;;;13.22;55.03;101282.28;12251315;19;20010;-83
2022/10/08 08:31:17;;;;;;;3.95;2.15;;;14.40;57.40;;;13.24;55.13;101249.81;12247504;19;20019;-85
2022/10/08 08:35:19;;;;;;;4.88;2.00;;;14.90;57.40;;;13.70;55.19;101285.66;12252124;19;20007;-83
2022/10/08 08:39:27;;;;;;;3.33;1.98;;;14.90;56.90;;;13.96;55.29;101294.59;12248583;19;20006;-83
2022/10/08 08:43:29;;;;;;;3.05;1.92;;;15.20;57.30;;;14.02;55.22;101267.97;12257265;19;20074;-83
2022/10/08 08:47:35;;;;;;;4.63;1.80;;;15.70;56.80;;;14.32;55.28;101283.63;12259510;19;20007;-84
2022/10/08 08:51:37;;;;;;;3.75;1.83;;;15.60;56.20;;;14.44;55.11;101283.78;12259468;19;20364;-84
2022/10/08 08:55:44;;;;;;;2.72;1.50;;;15.90;56.20;;;14.57;54.89;101275.06;12263148;19;20014;-85
2022/10/08 08:59:48;;;;;;;2.50;1.65;;;15.90;56.00;;;14.35;55.25;101225.63;12259447;19;20096;-84
2022/10/08 09:03:58;;;;;;;3.78;1.65;;;16.10;55.90;;;14.93;55.22;101293.84;12262894;19;20018;-82
2022/10/08 09:08:16;;;;;;;1.95;1.60;;;16.30;56.00;;;14.93;55.33;101268.41;12260137;19;20018;-83
2022/10/08 09:12:42;;;;;;;3.13;1.75;;;16.50;55.90;;;15.37;55.46;101308.53;12254830;19;20018;-83
2022/10/08 09:16:44;;;;;;;3.88;1.60;;;16.70;55.70;;;15.61;55.33;101300.81;12263570;19;20018;-84
2022/10/08 09:20:46;;;;;;;2.70;1.70;;;16.80;55.70;;;15.84;55.44;101305.38;12260881;19;20010;-83
2022/10/08 09:24:54;;;;;;;1.40;1.30;;;17.10;55.60;;;15.96;55.16;101290.53;12265455;19;20420;-83
2022/10/08 09:28:58;;;;;;;3.95;1.90;;;17.50;55.40;;;16.26;55.42;101303.38;12262358;19;20059;-84
2022/10/08 09:33:17;;;;;;;2.20;1.83;;;17.60;55.30;;;16.36;55.22;101288.59;12260596;19;20018;-83
2022/10/08 09:37:24;;;;;;;3.83;1.50;;;17.70;54.90;;;16.64;55.24;101288.44;12259818;19;20015;-83
2022/10/08 09:41:27;;;;;;;2.13;1.10;;;18.00;54.80;;;16.78;55.19;101288.31;12274195;19;20449;-84
2022/10/08 09:45:49;;;;;;;2.75;1.50;;;18.20;54.40;;;17.12;55.12;101315.72;12266303;19;20424;-84
2022/10/08 09:50:12;;;;;;;4.72;1.48;;;18.40;54.00;;;17.22;54.95;101297.41;12263150;19;20392;-84
2022/10/08 09:54:22;;;;;;;3.05;1.20;;;18.60;53.70;;;17.48;54.83;101304.22;12263855;19;20472;-83
2022/10/08 09:58:24;;;;;;;3.25;1.50;;;18.80;53.80;;;17.69;54.75;101309.69;12260438;19;20015;-84
2022/10/08 10:02:39;;;;;;;2.42;1.02;;;19.00;53.60;;;17.86;54.54;101315.50;12256433;19;20048;-83
2022/10/08 10:06:45;;;;;;;1.73;1.25;;;19.20;53.30;;;17.98;54.61;101306.63;12262289;19;20035;-82
2022/10/08 10:10:47;;;;;;;1.83;1.17;;;19.30;52.80;;;18.00;54.27;101294.16;12256324;19;20035;-85
2022/10/08 10:15:07;;;;;;;1.67;0.90;;;19.40;52.70;;;18.13;54.04;101310.72;12264723;19;20090;-84
2022/10/08 10:19:21;;;;;;;2.17;1.00;;;19.40;52.40;;;18.19;54.27;101313.88;12260341;19;20477;-83
2022/10/08 10:23:40;;;;;;;3.30;1.55;;;19.50;52.40;;;18.31;53.96;101316.41;12261972;19;20050;-85
2022/10/08 10:27:53;;;;;;;1.73;0.90;;;19.60;52.20;;;18.37;54.01;101327.47;12264775;19;20017;-84
2022/10/08 10:32:04;;;;;;;3.33;1.20;;;19.60;52.20;;;18.30;53.72;101312.06;12259538;19;20025;-83
2022/10/08 10:36:14;;;;;;;2.28;1.00;;;19.70;52.00;;;18.03;53.85;101267.47;12262822;19;20014;-83
2022/10/08 10:40:33;;;;;;;2.28;0.98;;;19.60;51.90;;;18.37;53.75;101317.72;12257877;19;20006;-83
2022/10/08 10:44:56;;;;;;;5.15;1.13;;;19.60;51.90;;;18.33;53.49;101305.69;12265213;19;20014;-84
2022/10/08 10:48:58;;;;;;;4.57;1.35;;;19.60;52.10;;;18.46;53.56;101321.44;12260900;19;20022;-84
2022/10/08 10:53:19;;;;;;;3.67;1.45;;;19.90;51.90;;;18.52;53.60;101323.59;12257882;19;20023;-87
2022/10/08 10:58:09;;;;;;;2.25;1.05;;;19.70;51.90;;;18.52;53.44;101324.44;12258466;19;20026;-82
2022/10/08 11:02:33;;;;;;;3.15;1.40;;;19.70;51.70;;;18.54;53.24;101325.16;12257943;19;20014;-82
2022/10/08 11:07:04;;;;;;;3.47;1.50;;;19.70;51.60;;;18.48;53.10;101315.06;12257957;19;20020;-84
2022/10/08 11:11:42;;;;;;;2.95;1.20;;;19.70;51.60;;;18.56;53.32;101339.09;12253500;19;20010;-82
2022/10/08 11:16:04;;;;;;;2.92;1.23;;;19.70;51.60;;;18.58;53.19;101334.53;12256467;19;20602;-85
2022/10/08 11:20:52;;;;;;;2.97;1.30;;;19.70;51.50;;;18.52;52.97;101335.03;12256148;19;20078;-82
2022/10/08 11:25:18;;;;;;;3.75;1.42;;;19.70;51.50;;;18.50;52.86;101328.19;12257301;19;20032;-82
2022/10/08 11:29:50;;;;;;;2.55;1.40;;;19.60;51.30;;;18.47;53.08;101334.56;12253412;19;20026;-81
2022/10/08 11:33:55;;;;;;;4.80;1.52;;;19.60;51.50;;;18.46;52.90;101334.66;12249384;19;20007;-83
2022/10/08 11:38:28;;;;;;;6.65;2.25;;;19.50;51.50;;;18.35;52.85;101340.78;12250910;19;20050;-81
2022/10/08 11:43:18;;;;;;;3.30;1.42;;;19.50;51.70;;;18.31;52.96;101340.19;12254495;19;20024;-81
2022/10/08 11:47:41;;;;;;;3.03;1.40;;;19.40;51.80;;;18.32;52.98;101352.44;12264946;19;20027;-84
2022/10/08 11:51:51;;;;;;;2.85;1.80;;;19.30;51.70;;;18.13;52.85;101318.66;12258353;19;20049;-83
2022/10/08 11:55:57;;;;;;;2.75;1.38;;;19.30;51.80;;;18.24;52.92;101344.28;12258508;19;20014;-85
2022/10/08 12:00:41;;;;;;;1.55;1.45;;;19.30;51.80;;;18.21;52.77;101351.59;12256081;19;20046;-85
2022/10/08 12:04:46;;;;;;;2.65;1.10;;;19.20;51.80;;;18.17;52.61;101342.22;12254946;19;20094;-84
2022/10/08 12:08:51;;;;;;;2.73;1.30;;;19.20;51.80;;;17.79;52.82;101282.59;12254830;19;20010;-84
2022/10/08 12:12:53;;;;;;;4.55;1.58;;;19.40;51.90;;;18.23;52.86;101365.56;12253495;19;20509;-83
2022/10/08 12:16:54;;;;;;;1.58;1.38;;;19.10;52.00;;;18.16;52.42;101366.97;12256106;19;20078;-82
2022/10/08 12:21:19;;;;;;;5.05;2.10;;;19.10;52.20;;;18.03;52.51;101386.41;12250857;19;20013;-86
2022/10/08 12:25:33;;;;;;;5.90;1.70;;;19.00;52.40;;;17.97;52.89;101378.94;12245500;19;20043;-83
2022/10/08 12:30:04;;;;;;;3.80;1.90;;;18.90;52.50;;;17.92;52.72;101375.81;12247223;19;20011;-83
2022/10/08 12:34:20;;;;;;;2.58;1.55;;;18.90;52.70;;;17.72;52.95;101342.13;12248081;19;20006;-84
2022/10/08 12:38:49;;;;;;;2.10;1.80;;;18.80;52.80;;;17.77;52.90;101350.50;12246172;19;20015;-83
2022/10/08 12:43:15;;;;;;;4.85;2.40;;;18.80;53.10;;;17.81;52.97;101363.41;12248521;19;20449;-84
2022/10/08 12:47:33;;;;;;;;;;;18.80;53.10;;;17.91;53.12;101374.16;12248612;19;20010;-84
2022/10/08 12:51:49;;;;;;;3.33;2.10;;;18.80;52.80;;;17.89;53.08;101373.41;12246030;19;19910;-84
2022/10/08 12:55:53;;;;;;;;;;;18.80;53.10;;;17.87;52.83;101362.09;12249769;19;20006;-84
2022/10/08 12:59:59;;;;;;;2.78;2.40;;;18.80;52.90;;;17.89;52.99;101354.91;12244570;19;19926;-86
2022/10/08 13:04:31;;;;;;;3.95;1.95;;;18.80;53.10;;;18.00;53.14;101372.59;12245860;19;20018;-83
2022/10/08 13:08:36;;;;;;;1.70;1.45;;;18.90;53.00;;;18.06;52.99;101372.94;12244091;19;20509;-84
2022/10/08 13:12:39;;;;;;;;;;;18.90;53.10;;;18.00;52.83;101369.94;12245393;19;20016;-83
2022/10/08 13:16:47;;;;;;;2.22;1.45;;;18.90;52.80;;;18.10;52.79;101382.34;12244154;19;19936;-83
2022/10/08 13:21:04;;;;;;;3.42;1.58;;;19.00;53.00;;;18.04;52.98;101379.34;12244756;19;20011;-84
2022/10/08 13:25:30;;;;;;;3.13;1.48;;;19.00;52.90;;;18.08;52.91;101378.97;12254410;19;20014;-84
2022/10/08 13:29:37;;;;;;;3.38;1.83;;;19.00;52.80;;;18.14;52.99;101381.13;12250624;19;20028;-83
2022/10/08 13:33:39;;;;;;;2.75;1.63;;;19.00;52.80;;;18.07;52.82;101379.09;12250126;19;20035;-85
2022/10/08 13:37:40;;;;;;;2.38;1.50;;;19.00;52.60;;;18.08;53.06;101376.31;12250650;19;20018;-84
2022/10/08 13:41:54;;;;;;;3.78;1.40;;;19.30;52.60;;;18.21;52.84;101399.19;12252239;19;20003;-83
2022/10/08 13:45:55;;;;;;;2.33;1.30;;;19.00;52.40;;;18.20;52.66;101371.06;12255465;19;20069;-83
2022/10/08 13:50:00;;;;;;;2.65;1.40;;;19.10;52.40;;;18.10;52.51;101358.56;12265887;19;20365;-85
2022/10/08 13:54:02;;;;;;;4.13;1.77;;;19.10;52.20;;;18.15;52.82;101366.16;12266530;19;20376;-84
2022/10/08 13:58:05;;;;;;;2.78;1.50;;;19.10;52.10;;;18.16;52.88;101373.09;12262021;19;20014;-84
2022/10/08 14:02:12;;;;;;;1.95;1.00;;;19.10;51.80;;;17.99;52.69;101340.03;12264530;19;20014;-84
2022/10/08 14:06:13;;;;;;;3.05;1.27;;;19.20;51.80;;;18.08;52.51;101363.13;12262408;19;20010;-84
2022/10/08 14:10:17;;;;;;;2.53;1.50;;;19.00;51.60;;;18.19;52.75;101395.81;12257618;19;20015;-84
2022/10/08 14:14:18;;;;;;;2.28;1.15;;;19.10;51.60;;;18.18;52.42;101388.88;12262457;19;20017;-84
2022/10/08 14:18:19;;;;;;;1.67;1.40;;;19.20;51.70;;;18.07;52.29;101368.53;12260784;19;20043;-84
2022/10/08 14:22:22;;;;;;;2.25;1.45;;;19.10;51.30;;;18.16;52.29;101378.38;12261368;19;20074;-83
2022/10/08 14:26:23;;;;;;;4.10;1.40;;;19.30;51.30;;;17.90;52.51;101338.09;12260871;19;20693;-84
2022/10/08 14:30:25;;;;;;;2.58;1.40;;;19.10;51.20;;;18.16;52.21;101377.56;12254834;19;20025;-83
2022/10/08 14:34:27;;;;;;;2.97;1.35;;;19.00;51.20;;;17.95;52.38;101335.94;12256024;19;20031;-84
2022/10/08 14:38:31;;;;;;;1.80;1.25;;;19.10;51.20;;;17.95;52.34;101343.88;12257857;19;20330;-84
2022/10/08 14:42:33;;;;;;;2.28;1.05;;;19.10;51.10;;;18.19;52.04;101385.25;12259421;19;20449;-83
2022/10/08 14:46:34;;;;;;;1.83;1.08;;;19.10;51.30;;;18.24;51.97;101391.03;12257993;19;20021;-83
2022/10/08 14:50:36;;;;;;;1.70;1.00;;;19.20;50.70;;;18.21;51.96;101388.63;12255697;19;20038;-84
2022/10/08 14:54:37;;;;;;;2.05;1.05;;;19.10;50.70;;;18.25;51.94;101395.34;12252615;19;20017;-83
2022/10/08 14:58:39;;;;;;;2.35;1.05;;;19.10;50.60;;;18.18;51.95;101384.41;12250910;19;20416;-83
2022/10/08 15:02:40;;;;;;;1.88;1.00;;;19.10;50.40;;;18.28;51.92;101403.03;12252450;19;20018;-83
2022/10/08 15:06:42;;;;;;;2.13;1.27;;;19.30;50.40;;;18.21;52.01;101412.41;12252381;19;20018;-83
2022/10/08 15:10:44;;;;;;;1.67;1.20;;;19.20;50.30;;;18.26;51.96;101442.00;12247569;19;20081;-82
2022/10/08 15:14:46;;;;;;;3.40;1.48;;;19.10;50.90;;;18.14;51.54;101441.94;12251584;19;20018;-83
2022/10/08 15:18:48;;;;;;;1.73;1.10;;;19.10;51.10;;;18.01;51.86;101428.00;12245444;19;20408;-83
2022/10/08 15:22:50;;;;;;;0.90;0.85;;;19.00;51.30;;;18.03;51.86;101447.19;12249069;19;20097;-83
2022/10/08 15:26:53;;;;;;;2.10;1.10;;;18.90;50.70;;;17.97;51.93;101436.25;12244957;19;20003;-84
2022/10/08 15:31:16;;;;;;;1.35;0.80;;;18.80;50.70;;;17.84;51.90;101437.16;12240093;19;20437;-83
2022/10/08 15:35:18;;;;;;;1.20;0.80;;;18.80;50.80;;;17.72;51.85;101424.84;12243381;19;20026;-86
2022/10/08 15:39:23;;;;;;;1.65;1.00;;;18.70;51.20;;;17.80;51.90;101451.56;12241013;19;20014;-83
2022/10/08 15:43:32;;;;;;;2.10;1.15;;;18.60;51.60;;;17.67;51.76;101435.75;12247061;19;20093;-82
2022/10/08 15:47:34;;;;;;;1.63;1.25;;;18.50;51.60;;;17.68;51.65;101466.47;12244415;19;20022;-84
2022/10/08 15:51:36;;;;;;;2.35;1.65;;;18.50;51.80;;;17.42;51.71;101449.06;12248639;19;20018;-83
2022/10/08 15:55:37;;;;;;;2.33;1.42;;;18.40;51.60;;;17.55;51.96;101488.63;12266455;19;20021;-82
2022/10/08 15:59:39;;;;;;;2.17;1.35;;;18.30;51.70;;;17.46;51.82;101490.13;12247389;19;20022;-83
2022/10/08 16:03:44;;;;;;;3.40;1.77;;;18.20;51.40;;;17.38;51.96;101508.31;12250321;19;20017;-84
2022/10/08 16:07:45;;;;;;;2.38;1.17;;;18.20;51.50;;;17.22;51.88;101516.47;12249741;19;20018;-83
2022/10/08 16:11:49;;;;;;;1.63;1.00;;;18.30;51.60;;;17.14;51.71;101511.75;12246151;19;20007;-82
2022/10/08 16:15:50;;;;;;;0.88;0.88;;;18.00;51.40;;;17.13;51.81;101535.63;12250635;19;20014;-83
2022/10/08 16:19:52;;;;;;;3.90;0.90;;;17.90;51.30;;;16.96;51.92;101528.88;12250422;19;20027;-82
2022/10/08 16:23:55;;;;;;;0.90;0.60;;;17.80;50.90;;;16.61;51.89;101479.38;12250896;19;20014;-82
2022/10/08 16:27:58;;;;;;;0.75;0.70;;;17.80;51.30;;;16.86;51.87;101546.28;12254450;19;20030;-82
2022/10/08 16:31:59;;;;;;;0.68;0.60;;;17.70;51.70;;;16.77;52.05;101547.78;12251213;19;20018;-83
2022/10/08 16:36:04;;;;;;;12.48;8.07;;;17.60;51.90;;;16.78;52.09;101560.00;12247375;19;20043;-82
2022/10/08 16:40:07;;;;;;;11.40;6.95;;;17.50;52.10;;;16.73;52.10;101564.69;12241720;19;20015;-81
2022/10/08 16:44:13;;;;;;;9.63;6.78;;;17.50;52.30;;;16.58;52.14;101553.41;12244804;19;20028;-82
2022/10/08 16:48:14;;;;;;;30.33;15.82;;;17.70;53.00;;;16.61;52.25;101571.66;12250252;19;20019;-82
2022/10/08 16:52:16;;;;;;;21.55;12.30;;;17.40;52.60;;;16.55;52.21;101570.28;12249853;19;20014;-84
2022/10/08 16:56:19;;;;;;;9.07;5.63;;;17.30;52.70;;;16.50;52.04;101569.75;12250203;19;20011;-83
2022/10/08 17:00:20;;;;;;;4.57;3.70;;;17.30;52.80;;;16.52;52.34;101572.25;12256607;19;20098;-82
2022/10/08 17:04:26;;;;;;;6.63;5.65;;;17.30;52.80;;;16.53;52.38;101581.88;12265792;19;20527;-83